Terminal Aerodrome Forecast
Issued by NWS Portland, OR

Home | Current Version | Previous Version | Text Only | Print | Product List | Glossary On
Versions: 1 2 3 4 5 6 7 8 9 10 11 12 13 14 15 16 17 18 19 20
000
FTUS46 KPQR 190521
TAFTTD
TAF
KTTD 190521Z 1906/2006 00000KT P6SM SCT200
     FM191200 11005KT P6SM BKN150
     FM191500 13007KT P6SM -RA BKN050 OVC200
     FM191800 20008KT P6SM -SHRA BKN050
     FM192000 22005KT P6SM -SHRA BKN050
     FM200200 25013KT P6SM BKN050=

USA.gov is the U.S. government's official web portal to all federal, state and local government web resources and services.